Time;durP1;ratioP1;P1;durP2;ratioP2;P2;SDS_P1;SDS_P2;PMS_P1;PMS_P2;Temp;Humidity;BMP_temperature;BMP_pressure;BME280_temperature;BME280_humidity;BME280_pressure;Samples;Min_cycle;Max_cycle;Signal;HPM_P1;HPM_P2
2024/01/21 00:01:26;;;;;;;;;;;;;;;;;;;;;
2024/01/21 00:04:11;;;;;;;;;;;;;;;;;;;;;
2024/01/21 00:06:46;;;;;;;13.90;7.45;;;;;;;0.35;71.91;100798.13;4938517;29;20098;-96
2024/01/21 00:09:48;;;;;;;14.50;7.70;;;;;;;0.39;73.03;100807.38;4917238;29;20039;-96
2024/01/21 00:12:33;;;;;;;;;;;;;;;;;;;;;
2024/01/21 00:15:14;;;;;;;11.93;6.75;;;;;;;0.68;71.82;100830.72;4936437;29;20091;-96
2024/01/21 00:17:53;;;;;;;14.32;7.38;;;;;;;0.54;71.37;100824.28;4877903;29;20075;-96
2024/01/21 00:20:20;;;;;;;14.75;7.57;;;;;;;0.37;71.34;100810.22;4863722;29;20141;-96
2024/01/21 00:23:20;;;;;;;11.10;6.75;;;;;;;0.32;71.87;100811.72;4876028;29;20495;-96
2024/01/21 00:26:17;;;;;;;13.27;8.15;;;;;;;0.31;71.79;100820.63;4879706;29;20063;-96
2024/01/21 00:29:23;;;;;;;;;;;;;;;;;;;;;
2024/01/21 00:31:51;;;;;;;11.40;6.70;;;;;;;0.47;71.47;100831.25;4909997;29;20088;-95
2024/01/21 00:34:17;;;;;;;14.18;7.28;;;;;;;0.55;71.78;100841.00;4854866;29;20036;-95
2024/01/21 00:36:42;;;;;;;15.43;7.28;;;;;;;0.55;70.74;100833.06;4854996;29;20108;-95
2024/01/21 00:39:08;;;;;;;12.90;7.43;;;;;;;0.57;70.54;100842.50;4868160;29;20037;-95
2024/01/21 00:41:34;;;;;;;12.05;8.00;;;;;;;0.64;70.60;100842.66;4882536;29;20127;-94
2024/01/21 00:44:00;;;;;;;12.82;8.52;;;;;;;0.62;70.70;100835.88;4909053;29;20402;-94
2024/01/21 00:46:25;;;;;;;18.02;8.95;;;;;;;0.48;72.69;100832.91;4908087;29;20015;-95
2024/01/21 00:48:51;;;;;;;13.82;8.68;;;;;;;0.38;73.68;100851.63;4907627;29;20028;-95
2024/01/21 00:51:17;;;;;;;18.92;8.55;;;;;;;0.36;73.55;100828.94;4907123;29;20031;-95
2024/01/21 00:53:45;;;;;;;14.45;9.45;;;;;;;0.34;72.94;100829.09;4907801;29;20028;-95
2024/01/21 00:56:10;;;;;;;14.35;9.15;;;;;;;0.47;73.97;100835.72;4907972;29;20019;-95
2024/01/21 00:58:36;;;;;;;18.70;9.13;;;;;;;0.52;73.55;100836.88;4906568;29;20042;-95
2024/01/21 01:01:02;;;;;;;18.45;9.05;;;;;;;0.40;73.91;100836.38;4907366;29;20035;-94
2024/01/21 01:03:27;;;;;;;14.32;8.13;;;;;;;0.60;73.19;100849.28;4906716;29;20032;-94
2024/01/21 01:05:53;;;;;;;17.48;9.27;;;;;;;0.46;74.65;100839.34;4907786;29;20083;-94
2024/01/21 01:08:18;;;;;;;14.07;9.07;;;;;;;0.34;73.71;100831.75;4907774;29;20014;-94
2024/01/21 01:10:44;;;;;;;17.25;9.05;;;;;;;0.61;73.75;100850.94;4906038;29;20036;-95
2024/01/21 01:13:10;;;;;;;16.70;8.85;;;;;;;0.43;72.79;100815.84;4907681;29;20028;-93
2024/01/21 01:15:35;;;;;;;20.80;9.77;;;;;;;0.51;73.26;100829.09;4907707;29;20039;-95
2024/01/21 01:18:01;;;;;;;19.10;9.95;;;;;;;0.41;74.07;100839.84;4906734;29;20027;-94
2024/01/21 01:20:27;;;;;;;18.42;9.40;;;;;;;0.45;74.19;100830.56;4906922;29;20032;-95
2024/01/21 01:22:53;;;;;;;17.17;8.95;;;;;;;0.33;73.84;100830.09;4904478;29;20417;-90
2024/01/21 01:25:19;;;;;;;13.40;8.55;;;;;;;0.43;73.56;100845.00;4920236;29;20517;-90
2024/01/21 01:27:44;;;;;;;17.08;9.32;;;;;;;0.27;74.30;100829.91;4936198;29;20019;-90
2024/01/21 01:30:10;;;;;;;15.88;8.82;;;;;;;0.18;74.03;100821.13;4937491;29;20028;-90
2024/01/21 01:32:36;;;;;;;20.60;9.38;;;;;;;0.31;73.98;100836.53;4920613;29;20027;-90
2024/01/21 01:35:02;;;;;;;14.10;8.15;;;;;;;0.42;74.66;100857.41;4936518;29;20031;-90
2024/01/21 01:37:27;;;;;;;12.65;7.38;;;;;;;0.45;74.12;100854.41;4920230;29;20048;-90
2024/01/21 01:39:53;;;;;;;12.13;7.63;;;;;;;0.38;73.87;100835.72;4935866;29;20042;-90
2024/01/21 01:42:18;;;;;;;14.02;7.95;;;;;;;0.46;73.47;100821.66;4934259;29;20086;-90
2024/01/21 01:44:44;;;;;;;14.95;8.65;;;;;;;0.67;73.35;100854.75;4936593;29;20028;-90
2024/01/21 01:47:10;;;;;;;17.73;10.35;;;;;;;0.58;72.87;100844.16;4935956;29;20051;-90
2024/01/21 01:49:39;;;;;;;13.93;8.07;;;;;;;0.58;73.53;100857.41;4900706;29;20117;-90
2024/01/21 01:52:05;;;;;;;20.48;9.77;;;;;;;0.42;73.45;100838.06;4913086;29;20483;-90
2024/01/21 01:54:30;;;;;;;12.32;6.13;;;;;;;0.27;72.21;100845.81;4918624;29;20079;-90
2024/01/21 01:56:56;;;;;;;11.27;5.97;;;;;;;0.28;72.98;100872.13;4919680;29;20032;-90
2024/01/21 01:59:21;;;;;;;9.65;5.88;;;;;;;0.22;72.06;100842.84;4936273;29;20067;-90
2024/01/21 02:01:47;;;;;;;11.77;5.57;;;;;;;0.02;72.45;100856.34;4908134;29;20028;-90
2024/01/21 02:04:12;;;;;;;11.80;6.35;;;;;;;0.08;72.75;100852.25;4924122;29;20028;-90
2024/01/21 02:06:38;;;;;;;9.98;6.00;;;;;;;-0.11;73.13;100863.97;4939693;29;20020;-90
2024/01/21 02:09:05;;;;;;;11.00;5.93;;;;;;;-0.09;73.52;100877.84;4923398;29;20038;-90
2024/01/21 02:11:31;;;;;;;12.45;6.18;;;;;;;-0.33;74.61;100857.44;4908345;29;20106;-90
2024/01/21 02:13:56;;;;;;;11.40;5.93;;;;;;;-0.10;74.12;100876.22;4923308;29;20038;-90
2024/01/21 02:16:22;;;;;;;11.18;6.30;;;;;;;-0.11;74.12;100864.78;4923673;29;20023;-90
2024/01/21 02:18:47;;;;;;;9.85;5.95;;;;;;;-0.16;74.41;100872.38;4941883;29;20036;-89
2024/01/21 02:21:13;;;;;;;10.57;5.85;;;;;;;-0.18;73.66;100866.44;4939441;29;20035;-89
2024/01/21 02:23:38;;;;;;;9.65;5.65;;;;;;;-0.26;73.93;100879.63;4939604;29;20031;-90
2024/01/21 02:26:04;;;;;;;12.05;5.85;;;;;;;-0.62;73.95;100848.09;4923659;29;20391;-90
2024/01/21 02:28:29;;;;;;;9.27;5.78;;;;;;;-0.47;74.22;100856.25;4923846;29;20043;-90
2024/01/21 02:30:55;;;;;;;9.00;5.38;;;;;;;-0.35;74.75;100873.50;4941191;29;20055;-90
2024/01/21 02:33:20;;;;;;;8.52;5.20;;;;;;;-0.38;74.83;100879.09;4908100;29;20498;-90
2024/01/21 02:35:46;;;;;;;8.35;5.18;;;;;;;-0.19;73.17;100885.09;4908999;29;20034;-90
2024/01/21 02:38:11;;;;;;;7.15;4.68;;;;;;;-0.32;73.63;100878.44;4926954;29;20034;-91
2024/01/21 02:40:38;;;;;;;9.38;5.53;;;;;;;-0.20;73.34;100886.94;4926476;29;20114;-90
2024/01/21 02:43:07;;;;;;;7.10;4.55;;;;;;;-0.39;74.06;100882.75;4915485;29;20094;-90
2024/01/21 02:45:33;;;;;;;10.07;5.45;;;;;;;-0.13;73.15;100909.13;4911604;29;20027;-90
2024/01/21 02:47:58;;;;;;;8.45;5.20;;;;;;;-0.06;72.68;100904.03;4931267;29;20047;-90
2024/01/21 02:50:24;;;;;;;10.88;5.50;;;;;;;-0.34;73.18;100892.84;4935382;29;20054;-90
2024/01/21 02:52:49;;;;;;;9.05;5.35;;;;;;;-0.43;73.83;100897.28;4926405;29;20042;-90
2024/01/21 02:55:15;;;;;;;9.65;5.32;;;;;;;-0.46;73.46;100916.09;4925903;29;20035;-90
2024/01/21 02:57:40;;;;;;;8.88;5.63;;;;;;;-0.62;73.55;100899.16;4942279;29;20031;-90
2024/01/21 03:00:07;;;;;;;10.50;6.13;;;;;;;-0.42;72.99;100898.91;4957954;29;20457;-90
2024/01/21 03:02:33;;;;;;;10.65;5.38;;;;;;;-0.46;73.49;100908.16;4942153;29;20038;-90
2024/01/21 03:04:58;;;;;;;10.70;6.13;;;;;;;-0.61;73.43;100910.56;4925964;29;20027;-90
2024/01/21 03:07:24;;;;;;;10.15;6.30;;;;;;;-0.67;74.35;100901.44;4943712;29;20363;-90
2024/01/21 03:09:49;;;;;;;11.48;6.15;;;;;;;-0.54;74.29;100916.06;4926685;29;20031;-90
2024/01/21 03:12:15;;;;;;;11.43;5.85;;;;;;;-0.64;74.33;100917.00;4941151;29;20460;-90
2024/01/21 03:14:40;;;;;;;10.13;5.65;;;;;;;-0.54;73.58;100910.75;4943094;29;20038;-90
2024/01/21 03:17:06;;;;;;;10.10;5.55;;;;;;;-0.63;74.19;100920.47;4920774;29;20027;-90
2024/01/21 03:19:31;;;;;;;10.32;5.93;;;;;;;-0.65;73.87;100915.34;4918737;29;20031;-90
2024/01/21 03:21:57;;;;;;;9.50;5.60;;;;;;;-0.55;73.77;100917.06;4918612;29;20035;-90
2024/01/21 03:24:22;;;;;;;8.68;5.13;;;;;;;-0.63;74.00;100913.38;4932365;29;20465;-90
2024/01/21 03:26:48;;;;;;;10.02;6.07;;;;;;;-0.73;74.27;100912.66;4907344;29;20110;-90
2024/01/21 03:29:13;;;;;;;9.90;5.57;;;;;;;-0.69;74.72;100915.81;4906221;29;20036;-90
2024/01/21 03:31:39;;;;;;;13.13;6.45;;;;;;;-0.60;74.06;100917.53;4906813;29;20028;-90
2024/01/21 03:34:04;;;;;;;11.95;6.75;;;;;;;-0.63;74.93;100918.66;4907290;29;20034;-90
2024/01/21 03:36:30;;;;;;;12.63;6.80;;;;;;;-0.69;74.88;100923.75;4907004;29;20422;-90
2024/01/21 03:38:55;;;;;;;12.18;6.60;;;;;;;-0.82;75.77;100918.88;4911973;29;20027;-89
2024/01/21 03:41:21;;;;;;;14.25;7.32;;;;;;;-0.86;75.13;100923.66;4918655;29;20031;-90
2024/01/21 03:43:46;;;;;;;14.88;6.82;;;;;;;-0.96;76.03;100922.91;4935992;29;20035;-91
2024/01/21 03:46:12;;;;;;;13.68;6.97;;;;;;;-0.79;75.75;100926.50;4918877;29;20027;-91
2024/01/21 03:48:37;;;;;;;12.15;6.72;;;;;;;-0.93;76.14;100933.19;4941631;29;20042;-91
2024/01/21 03:51:04;;;;;;;13.60;6.78;;;;;;;-0.95;75.59;100915.84;4941755;29;20102;-91
2024/01/21 03:53:29;;;;;;;15.90;7.35;;;;;;;-0.82;75.83;100922.34;4942376;29;20474;-91
2024/01/21 03:55:55;;;;;;;12.32;6.07;;;;;;;-0.79;75.53;100941.53;4957151;29;20060;-91
2024/01/21 03:58:20;;;;;;;14.43;6.63;;;;;;;-0.80;74.76;100932.78;4926559;29;20015;-91
2024/01/21 04:00:46;;;;;;;12.27;6.07;;;;;;;-0.79;74.68;100929.13;4942094;29;20204;-91
2024/01/21 04:03:11;;;;;;;12.45;6.22;;;;;;;-0.68;74.64;100938.66;4941351;29;20028;-91
2024/01/21 04:05:37;;;;;;;12.60;6.30;;;;;;;-0.71;74.75;100931.81;4926227;29;20094;-91
2024/01/21 04:08:05;;;;;;;10.20;6.07;;;;;;;-0.53;73.91;100934.41;4925300;29;20035;-91
2024/01/21 04:10:30;;;;;;;11.68;6.93;;;;;;;-0.62;74.35;100925.63;4927580;29;20089;-91
2024/01/21 04:12:56;;;;;;;11.98;6.00;;;;;;;-0.49;73.57;100927.00;4942127;29;20449;-90
2024/01/21 04:15:21;;;;;;;10.40;5.65;;;;;;;-0.46;73.63;100924.88;4941407;29;20019;-90
2024/01/21 04:17:47;;;;;;;8.85;4.47;;;;;;;-0.55;72.89;100931.09;4958185;29;20030;-91
2024/01/21 04:20:13;;;;;;;8.75;4.90;;;;;;;-0.36;72.26;100956.50;4942154;29;20481;-90
2024/01/21 04:22:38;;;;;;;8.00;4.75;;;;;;;-0.46;71.86;100946.06;4957598;28;20068;-90
2024/01/21 04:25:04;;;;;;;9.02;5.28;;;;;;;-0.43;71.70;100931.66;4941567;29;20027;-90
2024/01/21 04:27:29;;;;;;;7.47;4.90;;;;;;;-0.51;72.40;100926.34;4925329;29;20032;-90
2024/01/21 04:29:55;;;;;;;9.07;5.05;;;;;;;-0.43;72.15;100934.31;4925425;29;20038;-89
2024/01/21 04:32:21;;;;;;;11.13;5.70;;;;;;;-0.45;71.51;100929.16;4924252;29;20023;-91
2024/01/21 04:34:46;;;;;;;10.90;5.00;;;;;;;-0.32;72.20;100944.59;4942505;29;20504;-90
2024/01/21 04:37:12;;;;;;;7.72;4.82;;;;;;;-0.36;71.70;100931.84;4925911;29;20047;-90
2024/01/21 04:39:37;;;;;;;8.10;4.38;;;;;;;-0.27;72.14;100949.41;4941610;29;20366;-90
2024/01/21 04:42:03;;;;;;;8.70;5.32;;;;;;;-0.23;72.15;100945.47;4925570;29;20097;-91
2024/01/21 04:44:29;;;;;;;7.93;5.10;;;;;;;-0.27;71.61;100938.84;4941514;29;20556;-91
2024/01/21 04:46:54;;;;;;;8.68;4.28;;;;;;;-0.31;71.42;100951.56;4940351;29;20039;-91
2024/01/21 04:49:20;;;;;;;9.45;4.78;;;;;;;-0.43;71.79;100944.91;4941513;29;20027;-91
2024/01/21 04:51:45;;;;;;;8.60;4.80;;;;;;;-0.26;71.23;100954.56;4940711;29;20027;-91
2024/01/21 04:54:11;;;;;;;9.13;4.78;;;;;;;-0.39;71.78;100948.88;4926015;29;20023;-91
2024/01/21 04:56:37;;;;;;;12.10;5.85;;;;;;;-0.32;72.81;100967.59;4940787;29;20090;-91
2024/01/21 04:59:03;;;;;;;11.20;6.00;;;;;;;-0.35;73.58;100968.75;4940157;29;20074;-90
2024/01/21 05:01:28;;;;;;;10.57;6.75;;;;;;;-0.47;74.16;100954.97;4924984;29;20513;-91
2024/01/21 05:03:53;;;;;;;12.85;6.18;;;;;;;-0.53;74.72;100957.41;4925174;29;20469;-91
2024/01/21 05:06:19;;;;;;;9.20;5.53;;;;;;;-0.43;73.80;100963.41;4924356;29;20042;-91
2024/01/21 05:08:45;;;;;;;9.52;5.45;;;;;;;-0.35;73.57;100978.50;4925339;29;20046;-92
2024/01/21 05:11:13;;;;;;;12.70;5.57;;;;;;;-0.29;73.33;100977.84;4940059;29;20035;-91
2024/01/21 05:13:38;;;;;;;12.07;5.85;;;;;;;-0.25;72.52;100979.22;4925312;29;20023;-90
2024/01/21 05:16:04;;;;;;;10.55;5.90;;;;;;;-0.18;72.92;100972.31;4924776;29;20023;-90
2024/01/21 05:18:29;;;;;;;9.48;5.35;;;;;;;-0.37;73.19;100973.38;4940019;29;20023;-90
2024/01/21 05:20:55;;;;;;;9.57;4.97;;;;;;;-0.27;73.32;100984.69;4924623;29;20090;-91
2024/01/21 05:23:20;;;;;;;10.23;5.32;;;;;;;-0.41;73.13;100961.44;4923454;29;20413;-91
2024/01/21 05:25:50;;;;;;;11.93;6.25;;;;;;;-0.38;73.92;100977.00;4924434;29;20037;-91
2024/01/21 05:28:16;;;;;;;10.10;5.72;;;;;;;-0.51;74.12;100985.38;4925879;29;20069;-91
2024/01/21 05:30:41;;;;;;;11.95;6.30;;;;;;;-0.38;73.89;100995.53;4923608;29;20031;-90
2024/01/21 05:33:07;;;;;;;10.52;5.70;;;;;;;-0.51;74.00;100976.59;4924387;29;20393;-90
2024/01/21 05:35:32;;;;;;;10.48;6.57;;;;;;;-0.54;74.61;100983.03;4923370;29;20027;-91
2024/01/21 05:37:58;;;;;;;14.57;7.25;;;;;;;-0.66;74.83;100981.63;4924382;29;20046;-90
2024/01/21 05:40:25;;;;;;;12.20;7.05;;;;;;;-0.56;74.95;100997.38;4940904;29;20035;-91
2024/01/21 05:42:51;;;;;;;11.45;7.13;;;;;;;-0.47;74.01;100984.06;4939953;29;20023;-90
2024/01/21 05:45:17;;;;;;;11.48;6.85;;;;;;;-0.38;73.05;100992.88;4956440;29;20027;-89
2024/01/21 05:47:42;;;;;;;10.90;6.97;;;;;;;-0.45;73.85;100989.22;4957101;29;20026;-91
2024/01/21 05:50:08;;;;;;;15.23;8.77;;;;;;;-0.22;73.28;101021.25;4924664;29;20027;-90
2024/01/21 05:52:36;;;;;;;15.35;8.85;;;;;;;-0.24;73.33;101008.19;4955876;29;20047;-91
2024/01/21 05:55:03;;;;;;;20.05;12.05;;;;;;;-0.20;73.28;101008.69;4923813;29;20093;-91
2024/01/21 05:57:30;;;;;;;19.30;10.73;;;;;;;-0.15;73.09;101022.28;4955278;29;20120;-91
2024/01/21 05:59:56;;;;;;;19.27;10.02;;;;;;;-0.17;72.55;101018.94;4955614;29;20039;-92
2024/01/21 06:02:22;;;;;;;19.13;10.93;;;;;;;-0.08;71.79;101025.16;4938483;29;20473;-91
2024/01/21 06:04:48;;;;;;;17.42;11.07;;;;;;;-0.08;72.48;101018.03;4931207;29;20412;-91
2024/01/21 06:07:13;;;;;;;22.73;12.18;;;;;;;-0.19;72.62;101014.81;4909195;29;20023;-91
2024/01/21 06:09:41;;;;;;;22.20;11.55;;;;;;;-0.19;72.62;101028.88;4920726;29;20493;-92
2024/01/21 06:12:08;;;;;;;20.45;11.38;;;;;;;-0.19;73.09;101020.09;4930575;29;20031;-91
2024/01/21 06:14:34;;;;;;;20.80;11.30;;;;;;;-0.06;72.54;101028.47;4935552;29;20483;-91
2024/01/21 06:17:00;;;;;;;20.55;11.45;;;;;;;-0.02;72.87;101043.06;4923426;29;20028;-91
2024/01/21 06:19:25;;;;;;;16.17;9.65;;;;;;;-0.10;72.59;101033.25;4921137;29;20067;-90
2024/01/21 06:21:51;;;;;;;17.08;9.13;;;;;;;-0.24;72.58;101021.41;4920431;29;20033;-91
2024/01/21 06:24:18;;;;;;;17.60;9.88;;;;;;;-0.18;72.49;101017.31;4936497;29;20055;-92
2024/01/21 06:26:44;;;;;;;18.60;9.55;;;;;;;-0.22;72.65;101008.84;4905048;29;20144;-91
2024/01/21 06:29:11;;;;;;;20.58;11.77;;;;;;;0.03;72.53;101035.44;4903999;29;20035;-91
2024/01/21 06:31:38;;;;;;;18.02;10.52;;;;;;;-0.03;72.47;101036.09;4925100;29;20103;-90
2024/01/21 06:34:05;;;;;;;29.00;14.38;;;;;;;-0.02;72.25;101011.28;4921146;29;20023;-91
2024/01/21 06:36:30;;;;;;;23.83;13.65;;;;;;;0.12;71.40;101033.66;4918644;29;20120;-91
2024/01/21 06:38:58;;;;;;;21.85;11.20;;;;;;;-0.08;72.08;101023.31;4919920;29;20467;-90
2024/01/21 06:41:23;;;;;;;24.42;10.13;;;;;;;-0.14;71.90;101013.38;4934188;29;20111;-93
2024/01/21 06:43:49;;;;;;;19.05;10.70;;;;;;;-0.14;72.91;101023.13;4902832;29;20031;-91
2024/01/21 06:46:16;;;;;;;18.13;10.60;;;;;;;-0.16;72.93;101033.88;4921011;29;20019;-92
2024/01/21 06:48:43;;;;;;;16.80;9.70;;;;;;;0.02;72.24;101060.25;4938964;29;20016;-93
2024/01/21 06:51:11;;;;;;;27.38;10.75;;;;;;;0.02;72.30;101057.59;4940948;29;20051;-91
2024/01/21 06:53:38;;;;;;;22.90;10.43;;;;;;;-0.02;72.40;101059.75;4909569;29;20226;-91
2024/01/21 06:56:07;;;;;;;19.58;10.82;;;;;;;-0.14;72.24;101034.53;4925892;29;20042;-92
2024/01/21 06:58:36;;;;;;;17.27;10.63;;;;;;;-0.10;72.70;101035.88;4910467;29;20558;-92
2024/01/21 07:01:03;;;;;;;20.00;9.75;;;;;;;-0.04;72.92;101037.91;4923169;29;20028;-91
2024/01/21 07:03:29;;;;;;;17.52;10.43;;;;;;;0.07;72.73;101054.50;4925151;29;20023;-91
2024/01/21 07:05:55;;;;;;;17.48;9.27;;;;;;;0.16;72.19;101059.66;4924283;29;20035;-91
2024/01/21 07:08:21;;;;;;;17.52;9.75;;;;;;;0.22;71.79;101060.03;4923722;29;20024;-90
2024/01/21 07:10:46;;;;;;;17.05;9.85;;;;;;;0.18;72.54;101062.97;4924448;29;20039;-91
2024/01/21 07:13:12;;;;;;;16.45;10.07;;;;;;;0.20;71.95;101058.34;4907677;29;20032;-90
2024/01/21 07:15:38;;;;;;;19.65;10.45;;;;;;;0.39;71.40;101072.34;4908573;29;20438;-90
2024/01/21 07:18:07;;;;;;;17.55;10.15;;;;;;;0.52;69.84;101056.84;4908985;29;20035;-91
2024/01/21 07:20:35;;;;;;;17.23;9.55;;;;;;;0.50;69.49;101053.53;4924114;29;20035;-91
2024/01/21 07:23:01;;;;;;;16.65;10.18;;;;;;;0.48;70.30;101063.44;4921273;29;20028;-91
2024/01/21 07:25:28;;;;;;;18.63;10.02;;;;;;;0.31;71.91;101061.72;4909969;29;20521;-91
2024/01/21 07:27:54;;;;;;;20.38;11.60;;;;;;;0.31;71.49;101073.16;4939993;29;20094;-91
2024/01/21 07:30:21;;;;;;;20.33;11.52;;;;;;;0.19;72.05;101063.84;4939650;29;20028;-91
2024/01/21 07:32:46;;;;;;;20.45;10.45;;;;;;;0.29;72.12;101055.75;4937440;29;20035;-90
2024/01/21 07:35:13;;;;;;;18.52;11.70;;;;;;;0.23;72.26;101054.59;4923791;29;20031;-91
2024/01/21 07:37:39;;;;;;;19.90;12.43;;;;;;;0.09;72.37;101050.69;4939842;29;20114;-92
2024/01/21 07:40:06;;;;;;;18.48;11.55;;;;;;;0.07;73.17;101051.84;4942474;29;20031;-91
2024/01/21 07:42:33;;;;;;;20.63;11.65;;;;;;;-0.27;73.43;101055.28;4959979;28;20028;-90
2024/01/21 07:44:59;;;;;;;20.25;11.82;;;;;;;0.09;73.36;101079.00;4958994;29;20110;-91
2024/01/21 07:47:25;;;;;;;22.23;11.43;;;;;;;0.30;72.31;101083.91;4959957;29;20023;-91
2024/01/21 07:49:52;;;;;;;22.65;12.55;;;;;;;0.23;73.00;101059.03;4959231;28;20046;-91
2024/01/21 07:52:17;;;;;;;23.75;13.30;;;;;;;0.30;72.15;101065.38;4941590;29;20027;-90
2024/01/21 07:54:43;;;;;;;26.85;13.93;;;;;;;0.40;72.65;101081.97;4926514;29;20042;-90
2024/01/21 07:57:09;;;;;;;20.55;12.60;;;;;;;0.36;72.15;101072.69;4941656;28;20393;-92
2024/01/21 07:59:35;;;;;;;23.73;12.82;;;;;;;0.20;71.43;101063.66;4941028;29;20031;-92
2024/01/21 08:02:01;;;;;;;19.98;11.63;;;;;;;0.44;70.28;101064.75;4940058;29;20413;-92
2024/01/21 08:04:27;;;;;;;21.77;11.32;;;;;;;0.60;71.44;101071.91;4947305;29;20030;-89
2024/01/21 08:06:54;;;;;;;16.70;10.32;;;;;;;0.87;70.65;101083.25;4930653;29;20063;-91
2024/01/21 08:09:21;;;;;;;18.52;10.73;;;;;;;1.00;70.39;101087.09;4941113;29;20038;-90
2024/01/21 08:11:46;;;;;;;16.08;10.63;;;;;;;1.15;68.43;101087.28;4945309;29;20438;-90
2024/01/21 08:14:12;;;;;;;21.25;12.82;;;;;;;1.26;68.99;101096.75;4927787;29;20030;-90
2024/01/21 08:16:41;;;;;;;20.35;13.15;;;;;;;1.26;68.83;101077.34;4910764;29;20374;-91
2024/01/21 08:19:06;;;;;;;26.15;12.63;;;;;;;1.25;68.90;101094.28;4910010;29;20098;-91
2024/01/21 08:21:32;;;;;;;21.48;13.63;;;;;;;1.20;70.14;101089.44;4927043;29;20015;-91
2024/01/21 08:23:58;;;;;;;22.25;13.20;;;;;;;1.52;69.57;101101.09;4925592;29;20086;-91
2024/01/21 08:26:26;;;;;;;24.52;13.23;;;;;;;1.31;68.74;101080.34;4926716;29;20028;-91
2024/01/21 08:28:52;;;;;;;23.60;13.77;;;;;;;1.44;68.91;101095.78;4960280;29;20026;-91
2024/01/21 08:31:19;;;;;;;19.77;11.65;;;;;;;1.66;67.39;101096.91;4942820;29;20035;-91
2024/01/21 08:33:45;;;;;;;17.80;10.65;;;;;;;1.27;66.20;101095.75;4927201;29;20027;-92
2024/01/21 08:36:10;;;;;;;15.50;10.15;;;;;;;1.34;66.65;101104.72;4927360;29;20142;-91
2024/01/21 08:38:38;;;;;;;20.13;10.93;;;;;;;1.34;67.14;101094.09;4943052;29;20401;-91
2024/01/21 08:41:03;;;;;;;19.50;11.15;;;;;;;1.45;65.95;101118.66;4926949;29;20027;-91
2024/01/21 08:43:30;;;;;;;16.88;10.02;;;;;;;1.42;67.40;101117.97;4910433;29;20082;-91
2024/01/21 08:45:56;;;;;;;18.65;10.60;;;;;;;1.03;67.54;101093.06;4942107;29;20394;-92
2024/01/21 08:48:22;;;;;;;18.60;10.57;;;;;;;1.19;69.07;101098.41;4932672;29;20095;-90
2024/01/21 08:50:47;;;;;;;17.38;9.85;;;;;;;1.10;68.89;101094.91;4936191;29;20035;-90
2024/01/21 08:53:13;;;;;;;14.73;9.68;;;;;;;1.15;68.90;101113.00;4945423;29;20114;-91
2024/01/21 08:55:39;;;;;;;16.75;9.65;;;;;;;1.26;68.37;101104.69;4941802;29;20038;-90
2024/01/21 08:58:04;;;;;;;15.50;8.95;;;;;;;1.20;68.15;101103.56;4940640;29;20030;-90
2024/01/21 09:00:31;;;;;;;14.38;9.68;;;;;;;1.21;68.63;101099.06;4925691;29;20055;-91
2024/01/21 09:02:58;;;;;;;17.13;10.32;;;;;;;1.22;68.38;101098.06;4940806;29;20060;-91
2024/01/21 09:05:26;;;;;;;15.35;9.00;;;;;;;1.12;68.45;101084.97;4941245;29;20045;-91
2024/01/21 09:07:53;;;;;;;14.05;8.48;;;;;;;1.30;67.79;101106.03;4941689;29;20027;-91
2024/01/21 09:10:20;;;;;;;15.68;8.88;;;;;;;1.33;67.04;101095.09;4940136;29;20027;-90
2024/01/21 09:12:46;;;;;;;15.98;9.07;;;;;;;1.39;66.81;101089.13;4925787;29;20023;-91
2024/01/21 09:15:13;;;;;;;13.07;7.72;;;;;;;1.34;65.94;101080.81;4942461;29;20031;-91
2024/01/21 09:17:39;;;;;;;15.98;9.18;;;;;;;1.28;65.71;101091.28;4957419;29;20505;-90
2024/01/21 09:20:05;;;;;;;14.48;8.38;;;;;;;1.10;68.07;101088.75;4925196;29;20027;-92
2024/01/21 09:22:31;;;;;;;13.35;8.10;;;;;;;1.22;68.62;101095.41;4924534;29;20409;-91
2024/01/21 09:24:56;;;;;;;12.32;7.82;;;;;;;1.06;68.71;101075.03;4940181;29;20029;-91
2024/01/21 09:27:26;;;;;;;12.35;8.15;;;;;;;0.94;68.43;101094.88;4941128;29;20030;-90
2024/01/21 09:29:55;;;;;;;12.77;7.15;;;;;;;0.72;68.90;101083.06;4956199;29;20036;-91
2024/01/21 09:32:20;;;;;;;11.38;6.82;;;;;;;0.69;69.51;101088.69;4957545;29;20078;-90
2024/01/21 09:34:46;;;;;;;12.55;7.90;;;;;;;0.53;69.41;101082.34;4926039;29;20027;-90
2024/01/21 09:37:12;;;;;;;12.38;7.03;;;;;;;0.45;69.43;101068.22;4940046;29;20054;-91
2024/01/21 09:39:37;;;;;;;15.15;8.40;;;;;;;0.58;70.05;101088.00;4956520;29;20050;-91
2024/01/21 09:42:10;;;;;;;16.23;8.07;;;;;;;0.44;69.07;101075.34;4940171;29;20394;-90
2024/01/21 09:44:37;;;;;;;13.52;8.00;;;;;;;0.41;69.34;101073.00;4955472;29;20027;-90
2024/01/21 09:47:04;;;;;;;14.05;8.32;;;;;;;0.48;70.30;101084.66;4956746;29;20049;-90
2024/01/21 09:49:34;;;;;;;13.20;7.97;;;;;;;0.43;70.56;101088.75;4957075;28;20455;-91
2024/01/21 09:52:02;;;;;;;14.48;7.07;;;;;;;0.28;69.93;101076.13;4940669;29;20019;-90
2024/01/21 09:54:28;;;;;;;11.90;6.75;;;;;;;0.34;69.82;101069.34;4957813;28;20037;-91
2024/01/21 09:56:56;;;;;;;16.27;7.63;;;;;;;0.57;70.24;101080.22;4924373;29;20031;-91
2024/01/21 09:59:22;;;;;;;12.07;6.88;;;;;;;0.64;70.61;101085.69;4957459;28;20024;-90
2024/01/21 10:01:48;;;;;;;11.80;7.20;;;;;;;0.63;70.77;101073.44;4935863;29;20070;-90
2024/01/21 10:04:19;;;;;;;13.82;8.10;;;;;;;0.82;70.66;101102.31;4931319;29;20031;-90
2024/01/21 10:06:46;;;;;;;12.82;7.50;;;;;;;0.93;70.21;101094.03;4931908;29;20030;-93
2024/01/21 10:09:16;;;;;;;14.43;7.50;;;;;;;0.92;69.26;101086.25;4925265;29;20039;-93
2024/01/21 10:11:50;;;;;;;13.63;7.15;;;;;;;0.91;69.43;101063.38;4923906;29;20054;-91
2024/01/21 10:14:18;;;;;;;14.20;7.97;;;;;;;0.86;69.86;101066.53;4940160;29;20045;-91
2024/01/21 10:16:44;;;;;;;12.40;6.78;;;;;;;0.76;69.78;101073.78;4956728;29;20055;-91
2024/01/21 10:19:26;;;;;;;12.25;6.78;;;;;;;0.85;69.90;101094.06;4928262;29;20027;-90
2024/01/21 10:22:37;;;;;;;12.25;7.20;;;;;;;0.73;70.15;101071.47;4933530;29;20497;-91
2024/01/21 10:25:05;;;;;;;13.23;8.02;;;;;;;0.85;70.49;101072.84;4893922;29;20040;-91
2024/01/21 10:27:33;;;;;;;12.82;7.30;;;;;;;1.03;69.70;101085.13;4886706;29;20554;-90
2024/01/21 10:29:59;;;;;;;12.90;6.90;;;;;;;1.08;69.12;101102.22;4875336;29;20051;-91
2024/01/21 10:32:24;;;;;;;12.95;7.25;;;;;;;0.90;69.15;101075.81;4891275;29;20036;-90
2024/01/21 10:34:50;;;;;;;13.48;7.40;;;;;;;0.95;69.64;101073.50;4871388;29;20044;-90
2024/01/21 10:37:18;;;;;;;11.95;7.13;;;;;;;0.88;69.74;101076.97;4859879;29;20043;-91
2024/01/21 10:39:46;;;;;;;14.25;7.03;;;;;;;0.81;69.03;101079.47;4874676;29;20115;-90
2024/01/21 10:42:12;;;;;;;13.57;7.45;;;;;;;0.96;68.58;101088.41;4886978;29;20149;-90
2024/01/21 10:44:38;;;;;;;15.05;7.68;;;;;;;0.89;69.27;101078.63;4884871;29;20104;-91
2024/01/21 10:47:04;;;;;;;11.25;7.15;;;;;;;0.74;69.18;101050.09;4870219;29;20035;-91
2024/01/21 10:49:33;;;;;;;11.55;6.72;;;;;;;0.80;69.04;101054.75;4854681;29;20032;-91
2024/01/21 10:51:58;;;;;;;12.82;7.35;;;;;;;0.90;69.51;101059.91;4901677;29;20081;-91
2024/01/21 10:54:27;;;;;;;11.75;6.43;;;;;;;1.00;69.08;101062.41;4854919;29;20028;-90
2024/01/21 10:56:53;;;;;;;12.07;6.32;;;;;;;0.99;69.92;101066.03;4924625;29;20036;-90
2024/01/21 10:59:19;;;;;;;11.68;5.88;;;;;;;1.04;68.74;101058.44;4922133;29;20512;-91
2024/01/21 11:01:45;;;;;;;8.85;5.10;;;;;;;1.06;68.03;101060.91;4918832;29;20028;-90
2024/01/21 11:04:14;;;;;;;9.77;6.00;;;;;;;1.22;67.86;101076.84;4897994;29;20387;-90
2024/01/21 11:06:48;;;;;;;20.33;9.40;;;;;;;1.13;68.16;101052.13;4909775;29;20098;-90
2024/01/21 11:09:21;;;;;;;33.88;14.55;;;;;;;1.15;68.32;101060.75;4909974;29;20028;-96
2024/01/21 11:11:50;;;;;;;21.08;10.73;;;;;;;1.18;69.10;101054.28;4908058;29;20023;-91
2024/01/21 11:14:36;;;;;;;12.23;6.95;;;;;;;1.16;69.11;101048.31;4909421;29;20031;-90
2024/01/21 11:17:11;;;;;;;12.02;6.88;;;;;;;1.17;69.77;101050.00;4925564;29;20016;-91
2024/01/21 11:19:43;;;;;;;11.73;6.60;;;;;;;1.31;69.40;101067.91;4894484;29;20031;-91
2024/01/21 11:22:12;;;;;;;14.05;7.25;;;;;;;1.09;69.46;101024.28;4941368;29;20038;-91
2024/01/21 11:24:37;;;;;;;14.80;7.68;;;;;;;1.16;69.49;101024.44;4893230;29;20059;-90
2024/01/21 11:27:03;;;;;;;14.25;6.72;;;;;;;1.09;70.14;101034.06;4892019;29;20117;-91